sensor_id;sensor_type;location;lat;lon;timestamp;P1;durP1;ratioP1;P2;durP2;ratioP2
727;SDS011;347;48.780;9.158;2023-07-29T00:01:20;6.13;;;5.63;;
727;SDS011;347;48.780;9.158;2023-07-29T00:03:46;5.20;;;4.80;;
727;SDS011;347;48.780;9.158;2023-07-29T00:06:11;5.07;;;4.87;;
727;SDS011;347;48.780;9.158;2023-07-29T00:08:37;4.97;;;4.77;;
727;SDS011;347;48.780;9.158;2023-07-29T00:11:02;5.23;;;5.03;;
727;SDS011;347;48.780;9.158;2023-07-29T00:13:28;4.90;;;4.70;;
727;SDS011;347;48.780;9.158;2023-07-29T00:15:54;5.30;;;5.10;;
727;SDS011;347;48.780;9.158;2023-07-29T00:18:23;5.50;;;5.20;;
727;SDS011;347;48.780;9.158;2023-07-29T00:20:49;5.37;;;5.07;;
727;SDS011;347;48.780;9.158;2023-07-29T00:23:16;5.60;;;5.40;;
727;SDS011;347;48.780;9.158;2023-07-29T00:25:44;5.30;;;5.00;;
727;SDS011;347;48.780;9.158;2023-07-29T00:28:10;5.17;;;4.97;;
727;SDS011;347;48.780;9.158;2023-07-29T00:30:36;5.60;;;5.30;;
727;SDS011;347;48.780;9.158;2023-07-29T00:33:02;5.30;;;5.00;;
727;SDS011;347;48.780;9.158;2023-07-29T00:35:27;6.07;;;5.57;;
727;SDS011;347;48.780;9.158;2023-07-29T00:37:53;5.40;;;5.20;;
727;SDS011;347;48.780;9.158;2023-07-29T00:40:19;5.63;;;5.30;;
727;SDS011;347;48.780;9.158;2023-07-29T00:42:46;6.87;;;5.50;;
727;SDS011;347;48.780;9.158;2023-07-29T00:45:12;6.03;;;5.73;;
727;SDS011;347;48.780;9.158;2023-07-29T00:47:38;5.40;;;5.13;;
727;SDS011;347;48.780;9.158;2023-07-29T00:50:05;5.30;;;5.10;;
727;SDS011;347;48.780;9.158;2023-07-29T00:52:32;5.20;;;5.00;;
727;SDS011;347;48.780;9.158;2023-07-29T00:54:58;5.40;;;5.20;;
727;SDS011;347;48.780;9.158;2023-07-29T00:57:23;5.40;;;5.20;;
727;SDS011;347;48.780;9.158;2023-07-29T00:59:50;5.50;;;5.20;;
727;SDS011;347;48.780;9.158;2023-07-29T01:02:16;5.43;;;5.20;;
727;SDS011;347;48.780;9.158;2023-07-29T01:04:42;5.70;;;5.40;;
727;SDS011;347;48.780;9.158;2023-07-29T01:09:47;5.50;;;5.30;;
727;SDS011;347;48.780;9.158;2023-07-29T01:15:18;5.57;;;5.27;;
727;SDS011;347;48.780;9.158;2023-07-29T01:17:46;5.10;;;4.90;;
727;SDS011;347;48.780;9.158;2023-07-29T01:20:33;5.77;;;5.20;;
727;SDS011;347;48.780;9.158;2023-07-29T01:23:02;5.60;;;5.30;;
727;SDS011;347;48.780;9.158;2023-07-29T01:25:27;5.40;;;5.20;;
727;SDS011;347;48.780;9.158;2023-07-29T01:27:53;4.80;;;4.70;;
727;SDS011;347;48.780;9.158;2023-07-29T01:30:20;5.13;;;4.93;;
727;SDS011;347;48.780;9.158;2023-07-29T01:32:54;5.30;;;4.97;;
727;SDS011;347;48.780;9.158;2023-07-29T01:35:36;5.00;;;4.70;;
727;SDS011;347;48.780;9.158;2023-07-29T01:38:13;5.77;;;5.47;;
727;SDS011;347;48.780;9.158;2023-07-29T01:40:43;5.47;;;5.07;;
727;SDS011;347;48.780;9.158;2023-07-29T01:43:10;5.20;;;5.00;;
727;SDS011;347;48.780;9.158;2023-07-29T01:45:36;5.77;;;5.03;;
727;SDS011;347;48.780;9.158;2023-07-29T01:48:06;5.70;;;5.40;;
727;SDS011;347;48.780;9.158;2023-07-29T01:50:33;5.33;;;5.13;;
727;SDS011;347;48.780;9.158;2023-07-29T01:52:59;5.00;;;4.90;;
727;SDS011;347;48.780;9.158;2023-07-29T01:55:24;5.93;;;5.63;;
727;SDS011;347;48.780;9.158;2023-07-29T01:57:50;5.57;;;5.37;;
727;SDS011;347;48.780;9.158;2023-07-29T02:00:19;5.50;;;5.20;;
727;SDS011;347;48.780;9.158;2023-07-29T02:02:44;5.50;;;5.30;;
727;SDS011;347;48.780;9.158;2023-07-29T02:05:10;5.60;;;5.40;;
727;SDS011;347;48.780;9.158;2023-07-29T02:07:36;5.67;;;5.47;;
727;SDS011;347;48.780;9.158;2023-07-29T02:10:01;5.70;;;5.40;;
727;SDS011;347;48.780;9.158;2023-07-29T02:12:27;6.03;;;5.73;;
727;SDS011;347;48.780;9.158;2023-07-29T02:14:53;5.80;;;5.50;;
727;SDS011;347;48.780;9.158;2023-07-29T02:17:19;5.53;;;5.23;;
727;SDS011;347;48.780;9.158;2023-07-29T02:19:44;5.70;;;5.40;;
727;SDS011;347;48.780;9.158;2023-07-29T02:22:12;5.60;;;5.40;;
727;SDS011;347;48.780;9.158;2023-07-29T02:24:39;5.93;;;5.73;;
727;SDS011;347;48.780;9.158;2023-07-29T02:27:05;6.07;;;5.77;;
727;SDS011;347;48.780;9.158;2023-07-29T02:29:30;5.57;;;5.33;;
727;SDS011;347;48.780;9.158;2023-07-29T02:31:57;5.30;;;4.97;;
727;SDS011;347;48.780;9.158;2023-07-29T02:34:24;5.53;;;5.33;;
727;SDS011;347;48.780;9.158;2023-07-29T02:36:50;5.87;;;5.57;;
727;SDS011;347;48.780;9.158;2023-07-29T02:39:15;5.60;;;5.40;;
727;SDS011;347;48.780;9.158;2023-07-29T02:41:41;5.47;;;5.27;;
727;SDS011;347;48.780;9.158;2023-07-29T02:44:06;6.20;;;5.83;;
727;SDS011;347;48.780;9.158;2023-07-29T02:46:32;6.03;;;5.73;;
727;SDS011;347;48.780;9.158;2023-07-29T02:48:58;6.07;;;5.87;;
727;SDS011;347;48.780;9.158;2023-07-29T02:51:24;6.63;;;6.00;;
727;SDS011;347;48.780;9.158;2023-07-29T02:53:49;5.70;;;5.40;;
727;SDS011;347;48.780;9.158;2023-07-29T02:56:15;5.90;;;5.70;;
727;SDS011;347;48.780;9.158;2023-07-29T02:58:41;5.50;;;5.30;;
727;SDS011;347;48.780;9.158;2023-07-29T03:01:07;5.43;;;5.20;;
727;SDS011;347;48.780;9.158;2023-07-29T03:03:32;5.50;;;5.30;;
727;SDS011;347;48.780;9.158;2023-07-29T03:05:59;5.70;;;5.40;;
727;SDS011;347;48.780;9.158;2023-07-29T03:08:29;5.67;;;5.37;;
727;SDS011;347;48.780;9.158;2023-07-29T03:10:55;5.53;;;5.30;;
727;SDS011;347;48.780;9.158;2023-07-29T03:13:21;5.03;;;4.83;;
727;SDS011;347;48.780;9.158;2023-07-29T03:15:47;5.40;;;5.20;;
727;SDS011;347;48.780;9.158;2023-07-29T03:18:12;5.57;;;5.30;;
727;SDS011;347;48.780;9.158;2023-07-29T03:20:38;5.80;;;5.50;;
727;SDS011;347;48.780;9.158;2023-07-29T03:23:03;5.77;;;5.57;;
727;SDS011;347;48.780;9.158;2023-07-29T03:25:29;6.27;;;5.90;;
727;SDS011;347;48.780;9.158;2023-07-29T03:27:55;6.27;;;5.90;;
727;SDS011;347;48.780;9.158;2023-07-29T03:30:21;5.77;;;5.47;;
727;SDS011;347;48.780;9.158;2023-07-29T03:32:47;5.90;;;5.60;;
727;SDS011;347;48.780;9.158;2023-07-29T03:35:14;6.37;;;6.07;;
727;SDS011;347;48.780;9.158;2023-07-29T03:37:39;5.70;;;5.30;;
727;SDS011;347;48.780;9.158;2023-07-29T03:40:05;5.70;;;5.50;;
727;SDS011;347;48.780;9.158;2023-07-29T03:42:32;6.00;;;5.80;;
727;SDS011;347;48.780;9.158;2023-07-29T03:44:57;6.40;;;6.10;;
727;SDS011;347;48.780;9.158;2023-07-29T03:47:23;6.03;;;5.73;;
727;SDS011;347;48.780;9.158;2023-07-29T03:49:49;6.27;;;5.97;;
727;SDS011;347;48.780;9.158;2023-07-29T03:52:15;6.83;;;6.50;;
727;SDS011;347;48.780;9.158;2023-07-29T03:54:40;6.27;;;5.97;;
727;SDS011;347;48.780;9.158;2023-07-29T03:57:06;6.07;;;5.67;;
727;SDS011;347;48.780;9.158;2023-07-29T03:59:31;6.00;;;5.80;;
727;SDS011;347;48.780;9.158;2023-07-29T04:01:58;6.63;;;6.17;;
727;SDS011;347;48.780;9.158;2023-07-29T04:04:23;6.63;;;6.20;;
727;SDS011;347;48.780;9.158;2023-07-29T04:06:49;5.50;;;5.20;;
727;SDS011;347;48.780;9.158;2023-07-29T04:09:15;5.97;;;5.67;;
727;SDS011;347;48.780;9.158;2023-07-29T04:11:40;5.23;;;4.93;;
727;SDS011;347;48.780;9.158;2023-07-29T04:14:06;5.23;;;4.93;;
727;SDS011;347;48.780;9.158;2023-07-29T04:16:32;5.47;;;5.17;;
727;SDS011;347;48.780;9.158;2023-07-29T04:18:57;5.77;;;5.47;;
727;SDS011;347;48.780;9.158;2023-07-29T04:21:23;7.80;;;4.80;;
727;SDS011;347;48.780;9.158;2023-07-29T04:23:49;5.20;;;4.80;;
727;SDS011;347;48.780;9.158;2023-07-29T04:26:14;5.63;;;5.10;;
727;SDS011;347;48.780;9.158;2023-07-29T04:28:40;5.17;;;4.97;;
727;SDS011;347;48.780;9.158;2023-07-29T04:31:05;5.07;;;4.87;;
727;SDS011;347;48.780;9.158;2023-07-29T04:33:31;5.23;;;4.93;;
727;SDS011;347;48.780;9.158;2023-07-29T04:35:57;4.60;;;4.40;;
727;SDS011;347;48.780;9.158;2023-07-29T04:38:24;5.50;;;5.10;;
727;SDS011;347;48.780;9.158;2023-07-29T04:40:52;5.50;;;5.20;;
727;SDS011;347;48.780;9.158;2023-07-29T04:43:18;6.63;;;6.03;;
727;SDS011;347;48.780;9.158;2023-07-29T04:45:44;5.80;;;5.40;;
727;SDS011;347;48.780;9.158;2023-07-29T04:48:10;5.93;;;5.53;;
727;SDS011;347;48.780;9.158;2023-07-29T04:50:36;5.80;;;5.40;;
727;SDS011;347;48.780;9.158;2023-07-29T04:53:01;5.60;;;5.20;;
727;SDS011;347;48.780;9.158;2023-07-29T04:55:27;6.90;;;6.30;;
727;SDS011;347;48.780;9.158;2023-07-29T04:57:53;6.27;;;5.77;;
727;SDS011;347;48.780;9.158;2023-07-29T05:00:18;6.00;;;5.70;;
727;SDS011;347;48.780;9.158;2023-07-29T05:02:44;7.03;;;5.83;;
727;SDS011;347;48.780;9.158;2023-07-29T05:05:10;6.07;;;5.67;;
727;SDS011;347;48.780;9.158;2023-07-29T05:07:35;5.80;;;5.50;;
727;SDS011;347;48.780;9.158;2023-07-29T05:10:01;6.03;;;5.53;;
727;SDS011;347;48.780;9.158;2023-07-29T05:12:27;6.47;;;5.87;;
727;SDS011;347;48.780;9.158;2023-07-29T05:14:54;6.10;;;5.80;;
727;SDS011;347;48.780;9.158;2023-07-29T05:17:20;6.00;;;5.60;;
727;SDS011;347;48.780;9.158;2023-07-29T05:19:46;5.60;;;5.40;;
727;SDS011;347;48.780;9.158;2023-07-29T05:22:12;6.70;;;6.20;;
727;SDS011;347;48.780;9.158;2023-07-29T05:24:37;7.13;;;6.80;;
727;SDS011;347;48.780;9.158;2023-07-29T05:27:03;6.57;;;6.27;;
727;SDS011;347;48.780;9.158;2023-07-29T05:29:29;6.77;;;6.37;;
727;SDS011;347;48.780;9.158;2023-07-29T05:31:54;7.50;;;7.00;;
727;SDS011;347;48.780;9.158;2023-07-29T05:34:20;6.27;;;5.97;;
727;SDS011;347;48.780;9.158;2023-07-29T05:36:45;5.90;;;5.57;;
727;SDS011;347;48.780;9.158;2023-07-29T05:39:11;6.13;;;5.80;;
727;SDS011;347;48.780;9.158;2023-07-29T05:41:37;6.57;;;6.27;;
727;SDS011;347;48.780;9.158;2023-07-29T05:44:02;6.00;;;5.70;;
727;SDS011;347;48.780;9.158;2023-07-29T05:46:28;6.73;;;6.30;;
727;SDS011;347;48.780;9.158;2023-07-29T05:48:54;6.17;;;5.77;;
727;SDS011;347;48.780;9.158;2023-07-29T05:51:20;5.83;;;5.53;;
727;SDS011;347;48.780;9.158;2023-07-29T05:53:45;5.83;;;5.53;;
727;SDS011;347;48.780;9.158;2023-07-29T05:56:11;6.00;;;5.60;;
727;SDS011;347;48.780;9.158;2023-07-29T05:58:36;5.40;;;5.10;;
727;SDS011;347;48.780;9.158;2023-07-29T06:01:02;6.10;;;5.10;;
727;SDS011;347;48.780;9.158;2023-07-29T06:03:28;5.73;;;5.33;;
727;SDS011;347;48.780;9.158;2023-07-29T06:05:53;4.83;;;4.53;;
727;SDS011;347;48.780;9.158;2023-07-29T06:08:19;6.70;;;5.07;;
727;SDS011;347;48.780;9.158;2023-07-29T06:10:45;5.60;;;5.23;;
727;SDS011;347;48.780;9.158;2023-07-29T06:13:11;4.97;;;4.67;;
727;SDS011;347;48.780;9.158;2023-07-29T06:15:36;5.03;;;4.73;;
727;SDS011;347;48.780;9.158;2023-07-29T06:18:02;5.30;;;5.00;;
727;SDS011;347;48.780;9.158;2023-07-29T06:20:28;8.40;;;7.60;;
727;SDS011;347;48.780;9.158;2023-07-29T06:22:54;4.40;;;4.10;;
727;SDS011;347;48.780;9.158;2023-07-29T06:25:19;4.20;;;4.00;;
727;SDS011;347;48.780;9.158;2023-07-29T06:27:45;4.87;;;4.47;;
727;SDS011;347;48.780;9.158;2023-07-29T06:30:11;4.60;;;4.30;;
727;SDS011;347;48.780;9.158;2023-07-29T06:32:36;4.77;;;4.50;;
727;SDS011;347;48.780;9.158;2023-07-29T06:35:02;4.60;;;4.20;;
727;SDS011;347;48.780;9.158;2023-07-29T06:37:27;5.00;;;4.70;;
727;SDS011;347;48.780;9.158;2023-07-29T06:39:53;7.73;;;3.80;;
727;SDS011;347;48.780;9.158;2023-07-29T06:42:19;4.27;;;4.00;;
727;SDS011;347;48.780;9.158;2023-07-29T06:44:44;3.70;;;3.50;;
727;SDS011;347;48.780;9.158;2023-07-29T06:47:11;4.30;;;4.10;;
727;SDS011;347;48.780;9.158;2023-07-29T06:49:37;4.17;;;4.00;;
727;SDS011;347;48.780;9.158;2023-07-29T06:52:02;4.00;;;3.80;;
727;SDS011;347;48.780;9.158;2023-07-29T06:54:28;4.03;;;3.83;;
727;SDS011;347;48.780;9.158;2023-07-29T06:56:54;4.77;;;4.30;;
727;SDS011;347;48.780;9.158;2023-07-29T06:59:20;3.90;;;3.70;;
727;SDS011;347;48.780;9.158;2023-07-29T07:01:46;4.10;;;3.93;;
727;SDS011;347;48.780;9.158;2023-07-29T07:04:11;4.63;;;4.37;;
727;SDS011;347;48.780;9.158;2023-07-29T07:06:37;5.13;;;4.83;;
727;SDS011;347;48.780;9.158;2023-07-29T07:09:03;4.73;;;4.53;;
727;SDS011;347;48.780;9.158;2023-07-29T07:11:28;4.93;;;4.63;;
727;SDS011;347;48.780;9.158;2023-07-29T07:13:54;4.50;;;4.30;;
727;SDS011;347;48.780;9.158;2023-07-29T07:16:19;4.43;;;4.23;;
727;SDS011;347;48.780;9.158;2023-07-29T07:18:45;4.83;;;4.63;;
727;SDS011;347;48.780;9.158;2023-07-29T07:21:11;4.27;;;3.97;;
727;SDS011;347;48.780;9.158;2023-07-29T07:23:38;4.93;;;4.63;;
727;SDS011;347;48.780;9.158;2023-07-29T07:26:04;3.90;;;3.70;;
727;SDS011;347;48.780;9.158;2023-07-29T07:28:30;4.70;;;4.30;;
727;SDS011;347;48.780;9.158;2023-07-29T07:30:55;4.47;;;4.27;;
727;SDS011;347;48.780;9.158;2023-07-29T07:33:21;6.60;;;4.37;;
727;SDS011;347;48.780;9.158;2023-07-29T07:35:47;4.50;;;4.30;;
727;SDS011;347;48.780;9.158;2023-07-29T07:38:13;4.33;;;4.13;;
727;SDS011;347;48.780;9.158;2023-07-29T07:40:39;4.60;;;4.40;;
727;SDS011;347;48.780;9.158;2023-07-29T07:43:05;4.37;;;4.17;;
727;SDS011;347;48.780;9.158;2023-07-29T07:45:32;3.93;;;3.70;;
727;SDS011;347;48.780;9.158;2023-07-29T07:47:57;4.30;;;4.10;;
727;SDS011;347;48.780;9.158;2023-07-29T07:50:24;4.80;;;4.40;;
727;SDS011;347;48.780;9.158;2023-07-29T07:52:49;4.47;;;4.27;;
727;SDS011;347;48.780;9.158;2023-07-29T07:55:15;4.80;;;4.60;;
727;SDS011;347;48.780;9.158;2023-07-29T07:57:41;4.13;;;3.93;;
727;SDS011;347;48.780;9.158;2023-07-29T08:00:06;4.40;;;4.20;;
727;SDS011;347;48.780;9.158;2023-07-29T08:02:32;5.37;;;4.97;;
727;SDS011;347;48.780;9.158;2023-07-29T08:04:58;4.80;;;4.60;;
727;SDS011;347;48.780;9.158;2023-07-29T08:07:24;4.97;;;4.70;;
727;SDS011;347;48.780;9.158;2023-07-29T08:09:49;5.43;;;4.93;;
727;SDS011;347;48.780;9.158;2023-07-29T08:12:16;4.70;;;4.50;;
727;SDS011;347;48.780;9.158;2023-07-29T08:14:41;4.90;;;4.70;;
727;SDS011;347;48.780;9.158;2023-07-29T08:17:07;5.23;;;4.83;;
727;SDS011;347;48.780;9.158;2023-07-29T08:19:33;4.70;;;4.40;;
727;SDS011;347;48.780;9.158;2023-07-29T08:22:01;4.63;;;4.20;;
727;SDS011;347;48.780;9.158;2023-07-29T08:24:28;4.73;;;4.53;;
727;SDS011;347;48.780;9.158;2023-07-29T08:26:53;4.70;;;4.50;;
727;SDS011;347;48.780;9.158;2023-07-29T08:29:19;4.60;;;4.40;;
727;SDS011;347;48.780;9.158;2023-07-29T08:31:44;4.50;;;4.27;;
727;SDS011;347;48.780;9.158;2023-07-29T08:34:10;4.87;;;4.63;;
727;SDS011;347;48.780;9.158;2023-07-29T08:36:36;4.80;;;4.53;;
727;SDS011;347;48.780;9.158;2023-07-29T08:39:01;5.10;;;4.80;;
727;SDS011;347;48.780;9.158;2023-07-29T08:41:29;5.40;;;5.10;;
727;SDS011;347;48.780;9.158;2023-07-29T08:46:37;4.70;;;4.50;;
727;SDS011;347;48.780;9.158;2023-07-29T08:49:03;4.53;;;4.27;;
727;SDS011;347;48.780;9.158;2023-07-29T08:51:29;4.50;;;4.30;;
727;SDS011;347;48.780;9.158;2023-07-29T08:53:56;5.60;;;5.20;;
727;SDS011;347;48.780;9.158;2023-07-29T08:56:24;4.97;;;4.77;;
727;SDS011;347;48.780;9.158;2023-07-29T08:58:50;5.13;;;4.67;;
727;SDS011;347;48.780;9.158;2023-07-29T09:01:17;4.67;;;4.47;;
727;SDS011;347;48.780;9.158;2023-07-29T09:03:43;4.33;;;4.23;;
727;SDS011;347;48.780;9.158;2023-07-29T09:06:11;5.07;;;4.77;;
727;SDS011;347;48.780;9.158;2023-07-29T09:08:45;5.70;;;5.30;;
727;SDS011;347;48.780;9.158;2023-07-29T09:11:14;4.37;;;4.13;;
727;SDS011;347;48.780;9.158;2023-07-29T09:13:42;4.43;;;4.13;;
727;SDS011;347;48.780;9.158;2023-07-29T09:16:08;5.10;;;4.80;;
727;SDS011;347;48.780;9.158;2023-07-29T09:18:34;5.40;;;5.17;;
727;SDS011;347;48.780;9.158;2023-07-29T09:21:00;4.87;;;4.67;;
727;SDS011;347;48.780;9.158;2023-07-29T09:23:26;6.00;;;5.60;;
727;SDS011;347;48.780;9.158;2023-07-29T09:26:00;5.70;;;5.50;;
727;SDS011;347;48.780;9.158;2023-07-29T09:28:26;5.57;;;5.37;;
727;SDS011;347;48.780;9.158;2023-07-29T09:30:58;6.30;;;6.00;;
727;SDS011;347;48.780;9.158;2023-07-29T09:33:28;7.20;;;6.70;;
727;SDS011;347;48.780;9.158;2023-07-29T09:35:54;6.63;;;6.33;;
727;SDS011;347;48.780;9.158;2023-07-29T09:38:25;6.90;;;6.60;;
